Time;durP1;ratioP1;P1;durP2;ratioP2;P2;SDS_P1;SDS_P2;PMS_P1;PMS_P2;Temp;Humidity;BMP_temperature;BMP_pressure;BME280_temperature;BME280_humidity;BME280_pressure;Samples;Min_cycle;Max_cycle;Signal;HPM_P1;HPM_P2
2021/05/05 00:00:06;;;;;;;9.13;5.17;;;;;;;7.69;56.65;100249.53;1729900;82;21180;-62
2021/05/05 00:02:35;;;;;;;8.80;4.95;;;;;;;7.66;56.29;100248.43;1729908;82;21171;-63
2021/05/05 00:05:03;;;;;;;9.30;4.83;;;;;;;7.64;55.94;100243.30;1734098;82;21171;-63
2021/05/05 00:07:31;;;;;;;7.12;3.92;;;;;;;7.62;55.72;100244.71;1734713;82;21652;-62
2021/05/05 00:09:58;;;;;;;9.10;5.12;;;;;;;7.58;55.46;100241.95;1734413;82;21524;-63
2021/05/05 00:12:25;;;;;;;7.97;4.37;;;;;;;7.55;55.53;100233.00;1731653;82;21120;-62
2021/05/05 00:14:53;;;;;;;7.30;4.37;;;;;;;7.54;55.52;100236.55;1733001;82;21615;-63
2021/05/05 00:17:20;;;;;;;7.22;4.35;;;;;;;7.54;55.98;100232.63;1708504;82;21184;-62
2021/05/05 00:19:48;;;;;;;7.45;4.55;;;;;;;7.53;56.03;100235.34;1731604;82;21747;-62
2021/05/05 00:22:16;;;;;;;8.75;4.37;;;;;;;7.52;56.17;100240.23;1711767;82;21220;-63
2021/05/05 00:24:43;;;;;;;8.98;4.67;;;;;;;7.50;56.26;100238.17;1708882;82;21580;-62
2021/05/05 00:27:11;;;;;;;7.62;4.35;;;;;;;7.47;56.22;100235.31;1732484;82;21628;-62
2021/05/05 00:29:38;;;;;;;6.08;3.65;;;;;;;7.44;56.21;100237.66;1733932;82;21587;-62
2021/05/05 00:32:07;;;;;;;6.75;3.55;;;;;;;7.45;55.93;100238.52;1709972;82;21200;-62
2021/05/05 00:34:36;;;;;;;6.87;4.22;;;;;;;7.44;55.73;100233.73;1733865;82;21136;-63
2021/05/05 00:37:03;;;;;;;7.65;3.62;;;;;;;7.44;55.65;100232.91;1711181;82;21183;-63
2021/05/05 00:39:30;;;;;;;6.65;3.65;;;;;;;7.44;55.47;100230.28;1732588;82;21172;-63
2021/05/05 00:41:58;;;;;;;8.55;4.45;;;;;;;7.43;55.16;100232.08;1727606;82;21121;-63
2021/05/05 00:44:26;;;;;;;7.78;3.58;;;;;;;7.43;54.92;100229.91;1675977;83;21215;-63
2021/05/05 00:46:53;;;;;;;6.65;3.45;;;;;;;7.42;54.67;100220.39;1732979;82;21216;-62
2021/05/05 00:49:21;;;;;;;7.75;3.90;;;;;;;7.41;54.73;100223.50;1708041;82;21616;-63
2021/05/05 00:51:48;;;;;;;6.47;3.20;;;;;;;7.41;54.65;100226.11;1726279;82;21128;-62
2021/05/05 00:54:16;;;;;;;6.08;3.50;;;;;;;7.41;54.54;100226.11;1730499;82;21141;-63
2021/05/05 00:56:44;;;;;;;8.45;4.12;;;;;;;7.41;54.49;100220.02;1733015;81;21638;-63
2021/05/05 00:59:12;;;;;;;7.47;3.75;;;;;;;7.39;54.39;100217.98;1732977;82;21667;-63
2021/05/05 01:01:40;;;;;;;6.62;3.12;;;;;;;7.38;54.29;100217.16;1732409;82;21148;-62
2021/05/05 01:04:11;;;;;;;6.40;3.67;;;;;;;7.37;54.26;100209.41;1718729;82;21181;-63
2021/05/05 01:06:38;;;;;;;8.03;3.20;;;;;;;7.36;54.22;100216.44;1745801;82;21180;-62
2021/05/05 01:09:06;;;;;;;5.28;3.10;;;;;;;7.36;54.30;100212.95;1720640;82;21604;-62
2021/05/05 01:11:33;;;;;;;6.80;3.52;;;;;;;7.36;54.34;100216.44;1724946;82;21642;-62
2021/05/05 01:14:01;;;;;;;7.12;3.05;;;;;;;7.36;54.29;100211.66;1731802;82;21600;-63
2021/05/05 01:16:29;;;;;;;6.10;2.98;;;;;;;7.36;54.20;100207.27;1706716;82;21187;-63
2021/05/05 01:18:57;;;;;;;5.85;3.05;;;;;;;7.36;54.21;100205.11;1731951;82;21196;-62
2021/05/05 01:21:25;;;;;;;6.67;3.77;;;;;;;7.34;54.21;100207.83;1730819;82;21645;-63
2021/05/05 01:23:53;;;;;;;7.25;3.08;;;;;;;7.33;54.12;100202.25;1735877;82;21160;-62
2021/05/05 01:26:20;;;;;;;7.20;3.37;;;;;;;7.34;53.92;100204.38;1728540;82;21175;-62
2021/05/05 01:28:48;;;;;;;7.47;3.65;;;;;;;7.34;53.87;100205.21;1716785;81;21176;-62
2021/05/05 01:31:16;;;;;;;5.80;2.87;;;;;;;7.35;53.69;100195.59;1740834;81;21167;-62
2021/05/05 01:33:45;;;;;;;6.80;3.75;;;;;;;7.34;53.71;100201.28;1741236;81;21270;-62
2021/05/05 01:36:13;;;;;;;6.12;3.17;;;;;;;7.36;53.68;100194.64;1737383;81;21183;-63
2021/05/05 01:38:42;;;;;;;6.28;2.92;;;;;;;7.35;53.76;100195.12;1741767;81;21191;-62
2021/05/05 01:41:10;;;;;;;7.45;3.55;;;;;;;7.35;53.88;100194.30;1735065;81;21539;-62
2021/05/05 01:43:37;;;;;;;5.92;3.02;;;;;;;7.34;54.19;100195.22;1736783;81;21175;-62
2021/05/05 01:46:05;;;;;;;6.92;3.35;;;;;;;7.33;54.25;100192.23;1716398;81;22201;-62
2021/05/05 01:48:33;;;;;;;7.12;3.25;;;;;;;7.32;54.21;100190.57;1722917;81;21717;-62
2021/05/05 01:51:01;;;;;;;6.72;3.27;;;;;;;7.30;54.10;100182.83;1718044;81;21611;-63
2021/05/05 01:53:30;;;;;;;10.32;3.52;;;;;;;7.31;54.06;100190.20;1740458;81;21199;-62
2021/05/05 01:55:58;;;;;;;10.45;3.40;;;;;;;7.31;54.08;100187.58;1733020;81;21140;-63
2021/05/05 01:58:26;;;;;;;7.47;3.22;;;;;;;7.32;53.85;100190.57;1732157;81;21698;-63
2021/05/05 02:00:55;;;;;;;6.60;3.65;;;;;;;7.34;53.81;100193.91;1736607;81;21495;-63
2021/05/05 02:03:24;;;;;;;6.62;3.27;;;;;;;7.33;53.72;100200.08;1734891;81;21135;-63
2021/05/05 02:06:11;;;;;;;5.65;2.75;;;;;;;7.34;53.81;100194.73;1604374;88;21226;-63
2021/05/05 02:08:58;;;;;;;7.22;3.50;;;;;;;7.39;53.68;100189.19;1790729;78;22423;-63
2021/05/05 02:11:27;;;;;;;6.65;3.30;;;;;;;7.36;53.65;100192.87;1769501;78;21077;-63
2021/05/05 02:13:55;;;;;;;6.00;2.83;;;;;;;7.35;53.76;100185.95;1718717;82;21215;-63
2021/05/05 02:16:23;;;;;;;6.83;2.72;;;;;;;7.36;53.68;100181.55;1713618;81;21146;-64
2021/05/05 02:18:54;;;;;;;8.43;3.42;;;;;;;7.34;53.72;100183.44;1707705;83;21161;-63
2021/05/05 02:21:22;;;;;;;5.95;3.30;;;;;;;7.33;53.85;100172.59;1706481;81;21576;-63
2021/05/05 02:23:51;;;;;;;6.50;3.33;;;;;;;7.34;53.84;100177.73;1707881;83;21145;-63
2021/05/05 02:26:19;;;;;;;6.70;3.10;;;;;;;7.34;53.98;100171.66;1727384;82;21214;-63
2021/05/05 02:28:47;;;;;;;9.28;3.37;;;;;;;7.35;54.03;100168.94;1681375;83;21038;-63
2021/05/05 02:31:17;;;;;;;5.45;3.15;;;;;;;7.36;54.00;100173.70;1719180;81;21161;-63
2021/05/05 02:33:45;;;;;;;7.12;3.37;;;;;;;7.36;54.21;100169.77;1723823;81;21138;-63
2021/05/05 02:36:13;;;;;;;6.72;3.15;;;;;;;7.35;54.40;100161.57;1712345;82;21137;-63
2021/05/05 02:38:42;;;;;;;7.10;3.65;;;;;;;7.37;54.36;100167.53;1684812;83;21466;-63
2021/05/05 02:41:11;;;;;;;6.95;3.92;;;;;;;7.38;54.43;100156.09;1719823;81;21235;-63
2021/05/05 02:43:39;;;;;;;6.95;3.40;;;;;;;7.42;54.46;100161.50;1685602;83;21149;-63
2021/05/05 02:46:07;;;;;;;6.97;3.00;;;;;;;7.46;54.49;100160.32;1719940;81;21176;-63
2021/05/05 02:48:36;;;;;;;5.58;3.15;;;;;;;7.47;54.41;100155.46;1684985;83;21244;-63
2021/05/05 02:51:05;;;;;;;10.78;3.40;;;;;;;7.50;54.56;100159.63;1713398;81;21243;-63
2021/05/05 02:53:34;;;;;;;6.70;3.37;;;;;;;7.52;54.66;100159.07;1709475;83;21183;-63
2021/05/05 02:56:04;;;;;;;6.70;2.98;;;;;;;7.54;54.61;100160.62;1712932;81;21168;-62
2021/05/05 02:58:32;;;;;;;6.78;3.05;;;;;;;7.57;54.51;100151.24;1687966;83;21160;-63
2021/05/05 03:01:01;;;;;;;7.62;3.22;;;;;;;7.61;54.45;100146.14;1717453;82;21729;-63
2021/05/05 03:03:29;;;;;;;6.53;3.55;;;;;;;7.63;54.61;100141.66;1723694;81;22235;-63
2021/05/05 03:05:56;;;;;;;5.35;2.70;;;;;;;7.69;54.51;100142.16;1707918;82;21126;-63
2021/05/05 03:08:24;;;;;;;7.05;3.35;;;;;;;7.74;54.19;100145.28;1695703;82;21196;-62
2021/05/05 03:10:51;;;;;;;7.35;3.50;;;;;;;7.81;54.14;100141.27;1703478;82;21140;-67
2021/05/05 03:13:19;;;;;;;6.45;3.47;;;;;;;7.86;53.99;100141.77;1735634;80;21201;-65
2021/05/05 03:15:46;;;;;;;10.78;3.87;;;;;;;7.93;53.99;100142.98;1762233;79;22548;-65
2021/05/05 03:18:14;;;;;;;5.95;2.85;;;;;;;7.97;54.03;100135.27;1762247;79;21946;-62
2021/05/05 03:20:42;;;;;;;5.72;3.22;;;;;;;8.02;54.14;100132.78;1755434;80;21173;-62
2021/05/05 03:23:09;;;;;;;6.53;3.47;;;;;;;8.07;54.25;100135.89;1755764;79;21127;-63
2021/05/05 03:25:40;;;;;;;6.72;3.42;;;;;;;8.11;54.17;100135.56;1752529;80;21118;-62
2021/05/05 03:28:08;;;;;;;7.05;3.22;;;;;;;8.17;54.16;100132.50;1753179;79;22273;-63
2021/05/05 03:30:36;;;;;;;8.00;3.55;;;;;;;8.24;54.07;100134.19;1748217;80;21597;-63
2021/05/05 03:33:03;;;;;;;7.53;3.30;;;;;;;8.31;54.20;100138.51;1721910;81;21201;-64
2021/05/05 03:35:31;;;;;;;7.12;3.40;;;;;;;8.36;54.13;100130.64;1732526;80;21603;-63
2021/05/05 03:37:58;;;;;;;7.50;2.50;;;;;;;8.44;54.38;100126.19;1748376;80;22301;-65
2021/05/05 03:40:25;;;;;;;5.75;2.85;;;;;;;8.51;54.28;100123.45;1703609;82;22608;-64
2021/05/05 03:42:53;;;;;;;5.35;3.02;;;;;;;8.59;54.29;100118.09;1706868;82;21147;-65
2021/05/05 03:45:21;;;;;;;5.67;3.25;;;;;;;8.66;54.25;100114.07;1735905;80;21176;-61
2021/05/05 03:47:49;;;;;;;5.62;2.70;;;;;;;8.73;54.21;100112.64;1746997;80;21168;-62
2021/05/05 03:50:18;;;;;;;5.58;2.62;;;;;;;8.80;54.11;100119.08;1763305;80;21201;-66
2021/05/05 03:52:46;;;;;;;6.45;3.10;;;;;;;8.90;53.79;100120.52;1752329;79;21201;-61
2021/05/05 03:55:15;;;;;;;5.72;3.10;;;;;;;8.98;53.32;100122.08;1769834;80;21622;-70
2021/05/05 03:57:45;;;;;;;6.65;3.45;;;;;;;9.05;53.00;100119.33;1765616;79;21153;-64
2021/05/05 04:00:14;;;;;;;5.78;2.75;;;;;;;9.14;53.13;100119.57;1765585;79;21121;-62
2021/05/05 04:02:42;;;;;;;6.12;2.85;;;;;;;9.22;53.06;100122.44;1738087;80;21226;-59
2021/05/05 04:05:12;;;;;;;6.33;2.80;;;;;;;9.32;53.16;100126.00;1753864;80;22242;-59
2021/05/05 04:07:39;;;;;;;5.65;2.75;;;;;;;9.40;52.84;100126.72;1730082;79;21144;-59
2021/05/05 04:10:09;;;;;;;5.25;2.75;;;;;;;9.48;52.81;100126.46;1748881;80;21166;-59
2021/05/05 04:12:36;;;;;;;6.12;3.22;;;;;;;9.57;52.65;100113.55;1749697;80;21184;-59
2021/05/05 04:15:22;;;;;;;6.33;2.72;;;;;;;9.66;52.41;100116.25;1773281;79;21129;-58
2021/05/05 04:18:08;;;;;;;5.80;2.67;;;;;;;9.75;52.08;100112.53;1767695;80;21261;-59
2021/05/05 04:20:55;;;;;;;6.95;3.33;;;;;;;9.84;51.74;100112.63;1770903;79;25793;-60
2021/05/05 04:23:41;;;;;;;6.22;3.12;;;;;;;9.93;51.75;100111.52;1722227;81;21184;-60
2021/05/05 04:26:19;;;;;;;6.22;2.87;;;;;;;10.00;51.63;100106.11;1768923;80;21176;-60
2021/05/05 04:28:47;;;;;;;5.72;3.00;;;;;;;10.11;51.60;100107.38;1747861;79;21180;-58
2021/05/05 04:31:14;;;;;;;5.83;2.77;;;;;;;10.23;51.27;100102.91;1774021;80;21155;-58
2021/05/05 04:33:45;;;;;;;6.60;3.27;;;;;;;10.34;50.99;100099.40;1743336;80;21193;-58
2021/05/05 04:36:13;;;;;;;7.78;3.15;;;;;;;10.46;51.17;100101.02;1752612;80;21203;-59
2021/05/05 04:38:42;;;;;;;6.42;2.90;;;;;;;10.59;50.82;100100.34;1763135;79;21168;-59
2021/05/05 04:41:10;;;;;;;4.58;2.40;;;;;;;10.73;50.59;100100.48;1763191;79;21179;-57
2021/05/05 04:43:37;;;;;;;5.67;2.40;;;;;;;10.87;50.55;100089.25;1764734;80;21378;-57
2021/05/05 04:46:05;;;;;;;6.97;2.27;;;;;;;11.01;50.21;100092.86;1758382;79;21148;-59
2021/05/05 04:48:33;;;;;;;7.10;2.67;;;;;;;11.15;49.83;100088.52;1760419;80;21161;-56
2021/05/05 04:51:03;;;;;;;6.15;2.30;;;;;;;11.28;49.33;100085.66;1770481;79;21133;-58
2021/05/05 04:53:31;;;;;;;5.22;2.47;;;;;;;11.44;48.93;100077.72;1740967;81;21202;-56
2021/05/05 04:55:59;;;;;;;4.78;2.20;;;;;;;11.58;49.20;100081.26;1764297;80;21215;-62
2021/05/05 04:58:26;;;;;;;5.00;2.20;;;;;;;11.71;49.20;100071.29;1764403;79;21855;-59
2021/05/05 05:00:53;;;;;;;5.17;2.20;;;;;;;11.85;48.72;100066.11;1750295;80;21647;-65
2021/05/05 05:03:21;;;;;;;5.92;2.80;;;;;;;11.99;48.56;100065.38;1757483;79;21231;-62
2021/05/05 05:05:48;;;;;;;5.45;2.22;;;;;;;12.11;47.92;100064.25;1763767;80;21192;-62
2021/05/05 05:08:16;;;;;;;4.40;1.92;;;;;;;12.23;47.64;100059.16;1760716;79;21430;-61
2021/05/05 05:10:44;;;;;;;5.22;2.20;;;;;;;12.35;47.08;100062.96;1714641;82;21208;-61
2021/05/05 05:13:11;;;;;;;4.47;2.27;;;;;;;12.47;47.41;100057.03;1762658;79;21169;-61
2021/05/05 05:15:39;;;;;;;5.12;2.25;;;;;;;12.58;47.27;100058.19;1770579;79;21177;-61
2021/05/05 05:18:06;;;;;;;4.87;2.25;;;;;;;12.67;47.21;100050.70;1762847;80;21165;-61
2021/05/05 05:20:33;;;;;;;11.05;2.27;;;;;;;12.76;47.01;100051.17;1740567;80;21211;-61
2021/05/05 05:23:01;;;;;;;5.15;2.27;;;;;;;12.87;47.22;100048.00;1759118;79;21639;-66
2021/05/05 05:25:29;;;;;;;4.25;1.72;;;;;;;12.96;46.71;100044.47;1748609;80;21185;-66
2021/05/05 05:27:56;;;;;;;5.90;2.10;;;;;;;13.03;46.77;100041.61;1773622;80;21170;-62
2021/05/05 05:30:24;;;;;;;4.58;1.87;;;;;;;13.12;46.29;100049.95;1772795;79;21109;-63
2021/05/05 05:32:52;;;;;;;6.62;2.05;;;;;;;13.19;46.35;100044.91;1767993;79;21393;-63
2021/05/05 05:35:20;;;;;;;4.47;1.85;;;;;;;13.27;46.19;100041.53;1772620;80;21223;-64
2021/05/05 05:37:47;;;;;;;5.10;1.60;;;;;;;13.35;45.93;100041.66;1773493;79;21172;-65
2021/05/05 05:40:17;;;;;;;3.98;2.08;;;;;;;13.44;45.88;100042.06;1748886;80;21188;-66
2021/05/05 05:42:45;;;;;;;4.67;1.98;;;;;;;13.51;45.13;100037.84;1756966;79;21188;-61
2021/05/05 05:45:56;;;;;;;3.95;1.60;;;;;;;13.68;45.17;100030.89;1811582;77;22794;-63
2021/05/05 05:48:26;;;;;;;5.40;2.10;;;;;;;13.73;45.00;100026.00;1745300;79;21969;-69
2021/05/05 05:50:53;;;;;;;5.30;1.65;;;;;;;13.84;44.89;100020.14;1746755;80;22003;-63
2021/05/05 05:53:20;;;;;;;5.30;2.00;;;;;;;13.93;45.12;100012.59;1772938;78;21575;-61
2021/05/05 05:55:49;;;;;;;4.78;1.85;;;;;;;14.03;45.60;100004.56;1773688;78;21193;-66
2021/05/05 05:58:17;;;;;;;4.53;1.85;;;;;;;14.16;45.86;100013.43;1748690;80;21599;-63
2021/05/05 06:00:45;;;;;;;5.20;2.27;;;;;;;14.25;45.77;100010.66;1772970;78;21633;-67
2021/05/05 06:03:13;;;;;;;5.53;1.90;;;;;;;14.35;46.23;100009.73;1783672;78;21215;-60
2021/05/05 06:05:41;;;;;;;3.85;1.67;;;;;;;14.44;46.04;100010.95;1755667;80;21255;-61
2021/05/05 06:08:08;;;;;;;9.98;2.10;;;;;;;14.53;46.33;99999.91;1784177;80;21191;-70
2021/05/05 06:10:36;;;;;;;4.17;1.60;;;;;;;14.61;46.32;99999.98;1772763;78;21171;-68
2021/05/05 06:13:04;;;;;;;5.95;1.92;;;;;;;14.68;46.05;100002.33;1748290;80;21184;-68
2021/05/05 06:15:34;;;;;;;5.08;1.90;;;;;;;14.75;46.18;100000.37;1782945;80;21128;-63
2021/05/05 06:18:03;;;;;;;4.92;1.47;;;;;;;14.80;46.66;100004.70;1779803;79;21167;-66
2021/05/05 06:20:32;;;;;;;4.95;1.72;;;;;;;14.84;46.77;99999.41;1784447;80;21113;-64
2021/05/05 06:23:01;;;;;;;3.67;1.15;;;;;;;14.88;47.12;99998.11;1776962;80;21192;-62
2021/05/05 06:25:28;;;;;;;4.65;1.62;;;;;;;14.92;47.49;99998.61;1774614;79;21172;-66
2021/05/05 06:27:56;;;;;;;6.33;2.05;;;;;;;15.00;47.49;99994.16;1750502;80;21156;-62
2021/05/05 06:30:25;;;;;;;10.15;1.80;;;;;;;15.09;47.95;99993.69;1777854;78;21179;-66
2021/05/05 06:32:52;;;;;;;4.85;1.80;;;;;;;15.19;47.71;99990.90;1779370;78;21112;-65
2021/05/05 06:35:21;;;;;;;5.00;1.75;;;;;;;15.27;47.22;99993.57;1762490;78;21168;-62
2021/05/05 06:37:49;;;;;;;6.67;1.85;;;;;;;15.35;47.57;99994.09;1758609;80;21223;-63
2021/05/05 06:40:17;;;;;;;5.25;2.00;;;;;;;15.41;47.74;99990.77;1704953;82;21262;-61
2021/05/05 06:42:44;;;;;;;3.77;1.72;;;;;;;15.51;47.83;99997.25;1681097;82;21170;-63
2021/05/05 06:45:12;;;;;;;5.80;2.05;;;;;;;15.59;47.95;99988.80;1721159;83;21217;-60
2021/05/05 06:47:41;;;;;;;4.75;2.12;;;;;;;15.70;47.58;99986.33;1737007;81;21189;-64
2021/05/05 06:50:10;;;;;;;5.60;1.92;;;;;;;15.77;47.45;99987.34;1735977;81;21233;-65
2021/05/05 06:52:38;;;;;;;4.30;1.87;;;;;;;15.81;47.46;99991.00;1743784;81;21651;-61
2021/05/05 06:55:07;;;;;;;4.90;1.85;;;;;;;15.83;47.80;99995.63;1743019;80;21193;-62
2021/05/05 06:57:36;;;;;;;4.80;1.50;;;;;;;15.89;47.95;99997.62;1728831;81;21110;-69
2021/05/05 07:00:07;;;;;;;6.53;1.95;;;;;;;15.97;47.35;99996.30;1737434;81;21127;-69
2021/05/05 07:02:35;;;;;;;6.90;2.10;;;;;;;16.01;47.46;99991.48;1737624;82;21122;-61
2021/05/05 07:05:05;;;;;;;6.22;1.98;;;;;;;16.03;47.54;99984.17;1736516;81;23037;-63
2021/05/05 07:07:33;;;;;;;4.45;1.80;;;;;;;16.05;47.57;99971.05;1734879;81;21219;-71
2021/05/05 07:10:01;;;;;;;4.08;1.92;;;;;;;16.06;47.66;99972.72;1736623;81;21229;-63
2021/05/05 07:12:28;;;;;;;6.62;2.10;;;;;;;16.10;48.09;99970.55;1712681;82;21162;-61
2021/05/05 07:14:58;;;;;;;4.05;1.82;;;;;;;16.16;47.79;99977.34;1715673;83;21144;-67
2021/05/05 07:17:28;;;;;;;4.53;1.80;;;;;;;16.25;47.69;99973.34;1743124;81;21175;-68
2021/05/05 07:19:56;;;;;;;4.97;1.70;;;;;;;16.28;47.63;99973.83;1716817;82;21184;-59
2021/05/05 07:22:23;;;;;;;3.65;1.65;;;;;;;16.30;48.09;99970.50;1742333;80;21132;-62
2021/05/05 07:24:50;;;;;;;4.55;2.25;;;;;;;16.39;47.73;99973.98;1690819;83;21142;-61
2021/05/05 07:27:18;;;;;;;4.22;1.90;;;;;;;16.45;47.47;99970.63;1722318;82;21618;-58
2021/05/05 07:29:48;;;;;;;4.95;2.25;;;;;;;16.49;47.58;99969.77;1688160;82;21147;-61
2021/05/05 07:32:15;;;;;;;5.42;2.25;;;;;;;16.57;47.98;99969.75;1717527;81;21606;-60
2021/05/05 07:34:43;;;;;;;4.83;2.08;;;;;;;16.65;47.96;99963.59;1721546;82;21635;-57
2021/05/05 07:37:14;;;;;;;7.05;2.00;;;;;;;16.74;47.72;99971.02;1684157;83;21262;-60
2021/05/05 07:47:24;;;;;;;5.20;2.33;;;;;;;16.86;46.83;99974.48;1691719;84;21156;-62
2021/05/05 07:49:49;;;;;;;4.87;2.27;;;;;;;16.86;47.30;99973.64;1678005;83;21218;-60
2021/05/05 07:52:19;;;;;;;6.55;2.47;;;;;;;16.88;47.30;99967.16;1721780;82;21219;-60
2021/05/05 07:54:46;;;;;;;4.87;2.42;;;;;;;16.88;47.22;99970.33;1722086;82;21252;-60
2021/05/05 07:57:13;;;;;;;4.58;2.30;;;;;;;16.89;47.16;99971.48;1720925;82;21224;-58
2021/05/05 07:59:40;;;;;;;4.97;2.15;;;;;;;16.92;47.04;99968.14;1744582;81;21128;-58
2021/05/05 08:02:08;;;;;;;4.75;2.22;;;;;;;16.92;47.59;99964.98;1739913;81;21474;-60
2021/05/05 08:04:36;;;;;;;5.33;2.30;;;;;;;16.99;47.92;99963.78;1743928;80;21169;-63
2021/05/05 08:07:03;;;;;;;7.70;2.40;;;;;;;17.09;47.78;99959.06;1750653;81;21432;-59
2021/05/05 08:09:31;;;;;;;9.18;2.90;;;;;;;17.20;47.11;99954.68;1748329;81;21210;-60
2021/05/05 08:11:58;;;;;;;6.90;2.40;;;;;;;17.27;47.39;99954.29;1745252;81;21196;-55
2021/05/05 08:14:26;;;;;;;5.15;2.27;;;;;;;17.33;46.09;99951.92;1710425;81;21120;-66
2021/05/05 08:16:55;;;;;;;5.83;2.67;;;;;;;17.33;46.09;99957.25;1742119;81;21191;-59
2021/05/05 08:19:24;;;;;;;6.78;2.10;;;;;;;17.34;46.71;99944.28;1714155;81;21211;-63
2021/05/05 08:21:52;;;;;;;5.50;2.20;;;;;;;17.39;46.56;99944.58;1703316;81;21674;-60
2021/05/05 08:24:20;;;;;;;5.60;2.45;;;;;;;17.47;46.24;99940.53;1696943;82;21255;-61
2021/05/05 08:26:47;;;;;;;5.70;2.35;;;;;;;17.55;45.96;99944.94;1748000;81;21196;-63
2021/05/05 08:29:17;;;;;;;5.95;2.33;;;;;;;17.63;44.81;99938.22;1743303;81;21603;-61
2021/05/05 08:31:45;;;;;;;6.12;1.98;;;;;;;17.70;44.77;99934.34;1740046;81;21209;-61
2021/05/05 08:34:13;;;;;;;5.87;2.05;;;;;;;17.76;44.64;99929.63;1731100;81;21187;-59
2021/05/05 08:36:41;;;;;;;4.67;2.40;;;;;;;17.80;43.86;99931.77;1747634;81;21144;-58
2021/05/05 08:39:11;;;;;;;5.15;2.52;;;;;;;17.78;43.96;99932.42;1741664;81;21188;-60
2021/05/05 08:41:39;;;;;;;9.00;2.12;;;;;;;17.78;43.89;99932.94;1714834;81;21136;-59
2021/05/05 08:44:12;;;;;;;4.83;2.00;;;;;;;17.82;42.43;99928.92;1715685;81;22142;-57
2021/05/05 08:46:41;;;;;;;4.42;2.10;;;;;;;17.86;41.85;99926.20;1764960;79;21160;-59
2021/05/05 08:49:09;;;;;;;8.05;1.87;;;;;;;17.89;41.98;99911.24;1771666;80;21184;-62
2021/05/05 08:51:37;;;;;;;7.37;2.12;;;;;;;17.90;42.52;99922.70;1768285;80;21144;-59
2021/05/05 08:54:07;;;;;;;4.85;2.17;;;;;;;17.94;42.52;99918.69;1778166;80;21108;-57
2021/05/05 08:56:35;;;;;;;5.85;2.50;;;;;;;18.04;41.65;99918.39;1773474;80;21607;-62
2021/05/05 08:59:07;;;;;;;5.37;2.77;;;;;;;18.13;41.98;99918.64;1748955;80;21129;-61
2021/05/05 09:01:36;;;;;;;4.67;2.00;;;;;;;18.21;42.04;99914.56;1734892;80;21172;-59
2021/05/05 09:04:04;;;;;;;4.95;2.42;;;;;;;18.26;41.82;99926.00;1742026;80;21181;-62
2021/05/05 09:06:53;;;;;;;4.30;2.17;;;;;;;18.27;41.00;99917.80;1765572;80;21172;-56
2021/05/05 09:09:39;;;;;;;6.35;2.05;;;;;;;18.27;41.01;99915.13;1771836;79;21264;-60
2021/05/05 09:12:17;;;;;;;4.10;1.90;;;;;;;18.33;42.18;99914.41;1770599;79;21220;-66
2021/05/05 09:15:10;;;;;;;4.92;2.05;;;;;;;18.47;41.43;99902.59;1771414;79;21167;-62
2021/05/05 09:17:44;;;;;;;5.40;1.95;;;;;;;18.59;41.06;99905.08;1775429;80;21239;-67
2021/05/05 09:20:32;;;;;;;12.10;2.10;;;;;;;18.70;40.28;99901.94;1742553;80;21215;-61
2021/05/05 09:23:03;;;;;;;8.18;1.95;;;;;;;18.72;39.38;99917.75;1768707;79;21197;-61
2021/05/05 09:25:36;;;;;;;3.87;2.20;;;;;;;18.70;38.90;99910.45;1771522;79;21226;-69
2021/05/05 09:28:16;;;;;;;4.60;2.35;;;;;;;18.70;38.77;99915.78;1776620;79;21844;-64
2021/05/05 09:30:50;;;;;;;4.42;1.82;;;;;;;18.69;39.08;99896.31;1776258;79;21208;-69
2021/05/05 09:33:34;;;;;;;4.37;1.70;;;;;;;18.74;40.18;99887.25;1775423;79;21854;-70
2021/05/05 09:36:07;;;;;;;4.40;1.80;;;;;;;18.84;39.87;99889.61;1775738;79;21205;-66
2021/05/05 09:38:49;;;;;;;4.70;1.62;;;;;;;18.97;39.03;99884.94;1769999;79;21140;-63
2021/05/05 09:41:30;;;;;;;5.17;1.98;;;;;;;19.06;37.94;99877.14;1774293;80;21180;-59
2021/05/05 09:44:03;;;;;;;6.40;2.08;;;;;;;19.05;37.93;99882.14;1771515;79;21191;-63
2021/05/05 09:46:42;;;;;;;6.30;1.87;;;;;;;19.04;38.14;99884.48;1751420;80;21280;-69
2021/05/05 09:49:32;;;;;;;3.95;1.57;;;;;;;19.08;38.38;99867.59;1747835;81;21964;-61
2021/05/05 09:52:15;;;;;;;5.47;1.65;;;;;;;19.18;37.72;99869.45;1713155;82;21157;-61
2021/05/05 09:54:53;;;;;;;5.60;1.67;;;;;;;19.30;37.79;99867.09;1740443;80;21200;-68
2021/05/05 09:57:32;;;;;;;3.58;1.45;;;;;;;19.38;37.43;99863.45;1747697;81;21126;-62
2021/05/05 10:00:09;;;;;;;4.80;1.65;;;;;;;19.44;36.58;99870.17;1746151;81;21224;-72
2021/05/05 10:02:48;;;;;;;7.15;2.27;;;;;;;19.51;36.68;99870.73;1735102;82;21442;-71
2021/05/05 10:05:23;;;;;;;3.70;1.65;;;;;;;19.60;37.49;99860.22;1737240;81;21228;-60
2021/05/05 10:08:00;;;;;;;5.15;1.75;;;;;;;19.72;36.97;99859.17;1706735;82;21143;-64
2021/05/05 10:10:32;;;;;;;4.05;1.45;;;;;;;19.84;35.74;99856.32;1734109;80;21191;-66
2021/05/05 10:13:05;;;;;;;4.08;1.47;;;;;;;19.91;36.23;99849.16;1711231;82;21275;-57
2021/05/05 10:15:37;;;;;;;2.83;1.30;;;;;;;19.96;35.69;99857.92;1749697;81;21117;-66
2021/05/05 10:18:10;;;;;;;5.53;1.80;;;;;;;20.05;34.60;99855.39;1738840;81;21200;-65
2021/05/05 10:20:43;;;;;;;5.17;1.85;;;;;;;20.09;34.18;99857.15;1739660;81;21235;-60
2021/05/05 10:23:10;;;;;;;4.40;1.85;;;;;;;20.06;34.51;99853.05;1715482;82;21225;-71
2021/05/05 10:25:42;;;;;;;3.80;1.80;;;;;;;20.03;34.43;99854.77;1708076;81;21218;-60
2021/05/05 10:28:10;;;;;;;4.85;1.65;;;;;;;20.03;35.24;99841.42;1750844;80;22284;-59
2021/05/05 10:30:37;;;;;;;5.15;1.40;;;;;;;20.09;35.39;99843.31;1741372;81;21604;-59
2021/05/05 10:33:13;;;;;;;4.28;1.75;;;;;;;20.17;35.38;99839.63;1645379;82;21302;-63
2021/05/05 10:35:39;;;;;;;4.05;1.82;;;;;;;20.28;34.96;99848.94;1742900;81;21203;-62
2021/05/05 10:38:07;;;;;;;4.40;1.75;;;;;;;20.37;33.96;99837.85;1716333;80;21197;-59
2021/05/05 10:40:36;;;;;;;4.28;1.60;;;;;;;20.43;33.96;99820.21;1742647;81;21367;-60
2021/05/05 10:43:06;;;;;;;5.03;1.87;;;;;;;20.46;32.90;99830.50;1710983;81;21232;-59
2021/05/05 10:45:45;;;;;;;4.95;2.02;;;;;;;20.47;34.16;99821.44;1723709;80;21536;-63
2021/05/05 10:48:16;;;;;;;4.60;1.92;;;;;;;20.60;33.87;99814.80;1773266;80;21211;-69
2021/05/05 10:50:58;;;;;;;7.80;2.37;;;;;;;20.75;32.78;99824.01;1775070;79;21146;-68
2021/05/05 10:53:43;;;;;;;6.95;1.75;;;;;;;20.82;32.31;99827.22;1775308;78;21373;-67
2021/05/05 10:56:23;;;;;;;4.25;1.52;;;;;;;20.86;29.89;99816.41;1766036;79;21137;-61
2021/05/05 10:59:03;;;;;;;5.62;2.00;;;;;;;20.87;29.30;99813.53;1779063;79;21144;-62
2021/05/05 11:01:43;;;;;;;3.87;1.37;;;;;;;20.85;29.80;99827.63;1740629;80;21191;-71
2021/05/05 11:04:14;;;;;;;4.45;1.45;;;;;;;20.83;30.13;99828.35;1776353;78;21208;-60
2021/05/05 11:06:53;;;;;;;4.67;1.67;;;;;;;20.82;30.59;99828.03;1772288;80;21204;-63
2021/05/05 11:09:40;;;;;;;4.40;1.50;;;;;;;20.81;30.35;99821.03;1768681;79;21187;-61
2021/05/05 11:12:13;;;;;;;5.28;1.75;;;;;;;20.84;30.38;99797.89;1747543;80;21204;-65
2021/05/05 11:15:06;;;;;;;4.35;1.50;;;;;;;20.91;30.75;99809.94;1750820;79;22181;-62
2021/05/05 11:17:34;;;;;;;5.28;1.37;;;;;;;21.03;28.83;99812.33;1719113;83;21612;-65
2021/05/05 11:20:05;;;;;;;3.52;1.50;;;;;;;21.17;29.22;99810.47;1722766;81;22856;-62
2021/05/05 11:22:38;;;;;;;3.98;1.12;;;;;;;21.27;29.31;99803.37;1720490;81;21180;-63
2021/05/05 11:25:21;;;;;;;4.17;1.42;;;;;;;21.28;28.61;99809.86;1723545;81;21194;-67
2021/05/05 11:27:51;;;;;;;5.78;1.62;;;;;;;21.30;28.22;99809.63;1719875;82;21171;-64
2021/05/05 11:30:40;;;;;;;6.42;1.70;;;;;;;21.27;28.30;99807.38;1695663;83;21146;-65
2021/05/05 11:33:10;;;;;;;8.48;1.20;;;;;;;21.31;28.73;99807.27;1720409;83;21594;-63
2021/05/05 11:35:39;;;;;;;4.25;1.60;;;;;;;21.41;29.25;99796.14;1716279;83;21531;-64
2021/05/05 11:38:18;;;;;;;4.22;1.80;;;;;;;21.49;28.81;99804.80;1719854;83;21230;-61
2021/05/05 11:41:00;;;;;;;4.60;1.32;;;;;;;21.59;27.95;99793.67;1716797;81;21250;-64
2021/05/05 11:43:29;;;;;;;3.45;1.47;;;;;;;21.66;27.74;99794.47;1721632;81;21215;-62
2021/05/05 11:46:00;;;;;;;7.25;1.85;;;;;;;21.70;28.00;99793.03;1693156;83;21151;-62
2021/05/05 11:48:35;;;;;;;3.83;1.57;;;;;;;21.74;27.93;99794.77;1713852;81;21172;-62
2021/05/05 11:51:27;;;;;;;3.58;1.47;;;;;;;21.74;28.78;99784.06;1721372;81;21182;-64
2021/05/05 11:53:57;;;;;;;3.75;1.60;;;;;;;21.80;29.15;99797.11;1720986;81;21239;-65